Time;durP1;ratioP1;P1;durP2;ratioP2;P2;SDS_P1;SDS_P2;PMS_P1;PMS_P2;Temp;Humidity;BMP_temperature;BMP_pressure;BME280_temperature;BME280_humidity;BME280_pressure;Samples;Min_cycle;Max_cycle;Signal;HPM_P1;HPM_P2
2022/08/23 00:01:22;;;;;;;3.20;1.92;;;;;;;19.51;73.95;101046.00;4955291;28;20045;-84
2022/08/23 00:03:52;;;;;;;6.40;2.47;;;;;;;19.50;74.27;101044.31;4933244;28;20039;-84
2022/08/23 00:06:21;;;;;;;5.57;2.45;;;;;;;19.51;75.22;101043.31;4951849;28;20674;-82
2022/08/23 00:08:50;;;;;;;7.50;2.78;;;;;;;19.50;74.67;101036.28;4963300;28;20142;-82
2022/08/23 00:11:40;;;;;;;7.05;2.58;;;;;;;19.53;74.41;101030.66;4956535;28;20058;-82
2022/08/23 00:14:11;;;;;;;6.00;2.65;;;;;;;19.48;75.52;101030.22;4958573;28;20046;-83
2022/08/23 00:16:39;;;;;;;7.75;2.40;;;;;;;19.44;75.82;101034.16;4941160;28;20046;-81
2022/08/23 00:19:10;;;;;;;3.80;2.00;;;;;;;19.41;74.96;101029.97;4960480;28;20133;-80
2022/08/23 00:21:38;;;;;;;7.55;2.53;;;;;;;19.49;74.12;101026.56;4960146;28;20138;-82
2022/08/23 00:24:06;;;;;;;5.63;2.60;;;;;;;19.55;73.54;101020.69;4941300;28;20075;-83
2022/08/23 00:26:56;;;;;;;5.45;2.08;;;;;;;19.57;73.57;101023.22;4958187;28;20146;-83
2022/08/23 00:29:28;;;;;;;5.68;2.97;;;;;;;19.57;75.00;101020.56;4968407;28;20047;-83
2022/08/23 00:31:55;;;;;;;8.02;2.53;;;;;;;19.40;76.15;101022.91;4941300;28;20077;-82
2022/08/23 00:34:23;;;;;;;8.88;3.35;;;;;;;19.39;75.26;101015.03;4972588;28;20041;-82
2022/08/23 00:36:50;;;;;;;6.53;2.50;;;;;;;19.38;75.33;101010.69;4994164;28;20115;-78
2022/08/23 00:39:18;;;;;;;7.90;2.55;;;;;;;19.40;76.77;101012.22;4988168;28;20106;-83
2022/08/23 00:41:46;;;;;;;4.45;2.20;;;;;;;19.30;76.86;101014.03;4963101;28;20051;-80
2022/08/23 00:50:39;;;;;;;7.95;2.30;;;;;;;19.16;77.57;101001.94;4957110;28;20248;-81
2022/08/23 00:53:26;;;;;;;7.60;2.50;;;;;;;19.19;77.38;101004.34;4961603;28;20058;-82
2022/08/23 00:55:58;;;;;;;8.15;2.97;;;;;;;19.23;76.39;101005.75;4961324;28;20067;-83
2022/08/23 00:58:26;;;;;;;10.05;3.05;;;;;;;19.20;77.21;101005.19;4963173;28;20054;-82
2022/08/23 01:00:54;;;;;;;5.50;2.53;;;;;;;19.25;76.91;101010.09;4978796;28;20133;-80
2022/08/23 01:03:24;;;;;;;4.85;2.65;;;;;;;19.15;78.36;101012.75;4949102;28;20125;-80
2022/08/23 01:06:00;;;;;;;6.68;2.00;;;;;;;19.04;79.05;101005.69;4975413;28;21006;-81
2022/08/23 01:08:30;;;;;;;6.85;3.05;;;;;;;19.03;79.38;101003.16;4946751;28;20047;-80
2022/08/23 01:11:22;;;;;;;7.75;3.13;;;;;;;19.05;78.55;101002.06;4955058;28;20093;-83
2022/08/23 01:14:04;;;;;;;8.82;2.83;;;;;;;19.05;78.31;101007.38;4955290;28;20138;-85
2022/08/23 01:16:48;;;;;;;8.18;2.85;;;;;;;19.09;77.49;101003.47;4939816;28;20043;-84
2022/08/23 01:19:32;;;;;;;4.05;2.22;;;;;;;19.08;77.87;101008.94;4959526;28;20055;-83
2022/08/23 01:22:24;;;;;;;4.75;2.45;;;;;;;18.98;79.60;101006.22;4954228;28;20047;-82
2022/08/23 01:24:52;;;;;;;5.00;2.53;;;;;;;18.93;79.19;101009.31;4939930;28;20039;-82
2022/08/23 01:27:35;;;;;;;5.72;2.45;;;;;;;18.97;78.43;101007.22;4956884;28;20111;-82
2022/08/23 01:30:05;;;;;;;5.10;2.30;;;;;;;19.00;77.53;101009.59;4955617;28;20039;-83
2022/08/23 01:32:38;;;;;;;4.53;2.30;;;;;;;18.99;78.13;101007.91;4959609;28;20121;-86
2022/08/23 01:35:06;;;;;;;6.82;2.38;;;;;;;19.01;77.30;101011.31;4955246;28;20066;-83
2022/08/23 01:37:33;;;;;;;5.78;2.22;;;;;;;18.98;77.26;101012.41;4947002;28;20047;-83
2022/08/23 01:40:00;;;;;;;5.00;2.72;;;;;;;18.97;78.03;101009.88;4958506;28;20106;-83
2022/08/23 01:42:28;;;;;;;7.00;3.15;;;;;;;18.88;79.17;101016.03;4957165;28;20043;-84
2022/08/23 01:44:55;;;;;;;2.53;1.85;;;;;;;18.90;78.09;101017.56;4957313;28;20058;-85
2022/08/23 01:47:23;;;;;;;3.88;1.92;;;;;;;18.94;77.70;101016.31;4944127;28;20142;-86
2022/08/23 01:49:50;;;;;;;6.05;2.50;;;;;;;18.95;78.37;101014.50;4942287;28;20066;-84
2022/08/23 01:52:18;;;;;;;6.03;2.35;;;;;;;18.84;80.39;101022.59;4966429;28;20050;-82
2022/08/23 01:54:45;;;;;;;6.50;3.25;;;;;;;18.82;79.39;101013.88;4957851;28;20050;-82
2022/08/23 01:57:13;;;;;;;3.13;1.98;;;;;;;18.80;79.48;101014.03;4954743;28;20105;-84
2022/08/23 01:59:41;;;;;;;5.55;2.50;;;;;;;18.82;79.42;101020.09;4979297;28;20053;-84
2022/08/23 02:02:08;;;;;;;5.25;2.40;;;;;;;18.86;78.43;101013.47;4949281;28;20043;-84
2022/08/23 02:04:36;;;;;;;6.13;2.30;;;;;;;18.92;77.54;101012.97;4961956;28;20130;-83
2022/08/23 02:07:03;;;;;;;7.80;2.83;;;;;;;18.93;77.40;101008.47;4958069;28;20047;-85
2022/08/23 02:09:30;;;;;;;3.60;1.83;;;;;;;18.91;76.75;101005.94;4957626;28;20039;-83
2022/08/23 02:11:58;;;;;;;6.55;2.10;;;;;;;18.91;76.75;101005.06;4944201;28;20066;-83
2022/08/23 02:14:25;;;;;;;4.05;2.75;;;;;;;18.95;76.53;101003.81;4974777;28;20379;-84
2022/08/23 02:16:54;;;;;;;4.65;2.13;;;;;;;18.91;76.28;101005.94;4954490;28;20054;-84
2022/08/23 02:19:35;;;;;;;4.78;2.30;;;;;;;18.96;75.87;101001.03;4941960;28;20129;-83
2022/08/23 02:22:04;;;;;;;4.70;2.00;;;;;;;18.95;76.37;101007.34;4938799;28;20046;-82
2022/08/23 02:24:33;;;;;;;4.35;1.70;;;;;;;18.91;76.05;101005.06;4943740;28;20038;-82
2022/08/23 02:27:03;;;;;;;5.45;2.17;;;;;;;18.87;76.27;100993.00;4953905;28;20073;-84
2022/08/23 02:29:34;;;;;;;4.18;1.92;;;;;;;18.83;76.53;100995.09;4940128;28;20055;-84
2022/08/23 02:32:06;;;;;;;3.67;2.03;;;;;;;18.82;76.12;100996.09;4937416;28;20101;-84
2022/08/23 02:34:36;;;;;;;2.97;1.75;;;;;;;18.87;75.68;101001.00;4940321;28;20051;-84
2022/08/23 02:37:05;;;;;;;7.13;2.35;;;;;;;18.93;74.92;100998.63;4942914;28;20528;-84
2022/08/23 02:39:32;;;;;;;5.63;2.15;;;;;;;18.92;74.72;100990.78;4953693;28;20184;-85
2022/08/23 02:42:00;;;;;;;5.35;2.13;;;;;;;18.87;74.86;100985.00;4937524;28;20055;-81
2022/08/23 02:44:28;;;;;;;5.50;2.28;;;;;;;18.90;74.74;100992.72;4967379;28;20054;-79
2022/08/23 02:46:56;;;;;;;3.25;1.90;;;;;;;18.95;74.93;100993.16;4945621;28;20057;-79
2022/08/23 02:49:24;;;;;;;4.85;2.42;;;;;;;18.89;76.14;100996.38;4967786;28;20038;-79
2022/08/23 02:51:52;;;;;;;6.45;2.28;;;;;;;18.83;75.68;100997.75;4995260;28;20034;-80
2022/08/23 02:54:58;;;;;;;4.93;2.97;;;;;;;18.86;75.77;100996.63;4982931;28;20035;-80
2022/08/23 02:57:26;;;;;;;6.15;1.88;;;;;;;18.78;76.20;101008.00;4964008;28;20042;-79
2022/08/23 02:59:56;;;;;;;3.53;2.20;;;;;;;18.77;76.36;101013.44;4976115;28;20054;-81
2022/08/23 03:02:24;;;;;;;5.95;2.25;;;;;;;18.78;76.49;101013.34;4961868;28;20035;-80
2022/08/23 03:04:51;;;;;;;5.32;2.67;;;;;;;18.81;75.90;101015.72;4935734;28;20677;-80
2022/08/23 03:07:18;;;;;;;5.20;2.78;;;;;;;18.84;75.47;101017.28;4957364;28;20047;-80
2022/08/23 03:09:46;;;;;;;5.90;2.83;;;;;;;18.82;75.80;101017.41;4949124;28;20043;-80
2022/08/23 03:12:13;;;;;;;7.22;2.85;;;;;;;18.75;76.47;101016.25;4958280;28;20042;-80
2022/08/23 03:14:41;;;;;;;6.55;2.45;;;;;;;18.70;77.22;101013.16;4965461;28;20059;-80
2022/08/23 03:17:09;;;;;;;5.88;2.55;;;;;;;18.64;77.83;101019.84;4954972;28;20031;-81
2022/08/23 03:19:36;;;;;;;6.65;2.67;;;;;;;18.60;77.98;101023.75;4941435;28;20049;-79
2022/08/23 03:22:03;;;;;;;6.47;3.03;;;;;;;18.64;78.85;101037.63;4979408;28;20250;-80
2022/08/23 03:24:30;;;;;;;7.55;3.22;;;;;;;18.55;79.89;101028.63;4976507;28;20042;-79
2022/08/23 03:26:58;;;;;;;7.43;3.05;;;;;;;18.49;80.27;101026.47;4960238;28;20046;-82
2022/08/23 03:29:25;;;;;;;7.32;2.70;;;;;;;18.49;79.93;101023.81;4978455;28;20055;-80
2022/08/23 03:31:52;;;;;;;4.95;3.22;;;;;;;18.53;78.84;101021.72;4954361;28;20553;-79
2022/08/23 03:34:20;;;;;;;8.98;3.60;;;;;;;18.51;79.54;101029.88;4977539;28;20134;-80
2022/08/23 03:36:48;;;;;;;5.20;2.97;;;;;;;18.52;79.49;101028.88;4960540;28;20055;-79
2022/08/23 03:39:15;;;;;;;7.00;3.30;;;;;;;18.48;81.26;101035.44;4974537;28;20057;-80
2022/08/23 03:41:42;;;;;;;6.30;3.38;;;;;;;18.42;82.35;101036.81;4958663;28;20050;-80
2022/08/23 03:44:10;;;;;;;7.55;2.97;;;;;;;18.37;81.62;101041.72;4943808;28;20133;-79
2022/08/23 03:46:37;;;;;;;5.28;2.78;;;;;;;18.43;81.00;101046.50;4960077;28;20094;-79
2022/08/23 03:49:05;;;;;;;7.47;3.03;;;;;;;18.49;80.35;101050.47;4932971;28;20043;-78
2022/08/23 03:51:33;;;;;;;5.95;2.60;;;;;;;18.47;80.94;101050.59;4928309;28;20045;-78
2022/08/23 03:54:01;;;;;;;7.85;3.72;;;;;;;18.50;80.19;101051.31;4975198;28;20654;-78
2022/08/23 03:56:29;;;;;;;8.10;3.30;;;;;;;18.49;80.74;101053.13;4980241;28;20081;-79
2022/08/23 03:59:00;;;;;;;6.97;3.15;;;;;;;18.49;81.20;101039.78;4977145;28;20053;-79
2022/08/23 04:01:27;;;;;;;6.13;3.00;;;;;;;18.43;82.04;101043.84;4966836;28;20070;-78
2022/08/23 04:03:58;;;;;;;6.15;3.22;;;;;;;18.37;83.52;101048.84;4977620;28;20053;-78
2022/08/23 04:06:26;;;;;;;7.95;4.18;;;;;;;18.30;84.54;101043.19;4941477;28;20065;-79
2022/08/23 04:08:54;;;;;;;7.32;3.33;;;;;;;18.26;84.56;101040.91;4976307;28;20063;-80
2022/08/23 04:11:22;;;;;;;6.18;3.55;;;;;;;18.26;84.59;101040.91;4976838;28;20062;-79
2022/08/23 04:13:50;;;;;;;10.30;3.88;;;;;;;18.26;84.79;101041.75;4974567;28;20046;-78
2022/08/23 04:16:18;;;;;;;7.13;3.10;;;;;;;18.25;84.76;101044.56;4977655;28;20057;-79
2022/08/23 04:18:46;;;;;;;8.85;3.58;;;;;;;18.29;84.05;101033.50;4954861;28;20065;-80
2022/08/23 04:21:18;;;;;;;6.07;2.92;;;;;;;18.36;83.11;101032.00;4974781;28;20061;-77
2022/08/23 04:23:45;;;;;;;6.38;3.63;;;;;;;18.37;83.52;101030.19;4962367;28;20058;-80
2022/08/23 04:26:12;;;;;;;7.32;3.88;;;;;;;18.42;82.65;101034.16;4958128;28;20059;-80
2022/08/23 04:28:40;;;;;;;9.80;4.32;;;;;;;18.41;82.50;101029.78;4972298;28;20055;-78
2022/08/23 04:31:07;;;;;;;9.52;3.78;;;;;;;18.44;82.06;101029.53;4969909;28;20055;-78
2022/08/23 04:33:34;;;;;;;8.55;4.10;;;;;;;18.46;82.84;101037.38;4969294;28;20070;-79
2022/08/23 04:36:06;;;;;;;14.20;3.90;;;;;;;18.38;84.16;101038.06;4940367;28;20086;-79
2022/08/23 04:38:34;;;;;;;8.52;4.32;;;;;;;18.36;84.15;101044.47;4949233;28;20046;-79
2022/08/23 04:43:48;;;;;;;8.98;3.30;;;;;;;18.29;85.35;101048.66;4968245;28;20055;-79
2022/08/23 04:46:15;;;;;;;5.88;3.47;;;;;;;18.31;84.76;101050.22;4972264;28;20047;-78
2022/08/23 04:48:43;;;;;;;11.20;4.10;;;;;;;18.36;83.92;101049.81;4969044;28;20046;-79
2022/08/23 04:51:11;;;;;;;12.68;5.07;;;;;;;18.37;84.92;101052.38;4934198;28;20509;-79
2022/08/23 04:53:39;;;;;;;10.50;3.88;;;;;;;18.36;85.42;101056.00;4971865;28;20045;-79
2022/08/23 04:56:07;;;;;;;6.28;3.58;;;;;;;18.35;85.40;101058.78;4932035;28;20047;-78
2022/08/23 04:58:35;;;;;;;7.60;3.13;;;;;;;18.40;84.08;101067.25;4954507;28;20110;-78
2022/08/23 05:01:06;;;;;;;6.93;3.55;;;;;;;18.44;83.66;101072.19;4949057;28;20059;-79
2022/08/23 05:03:34;;;;;;;5.72;3.15;;;;;;;18.51;82.91;101071.66;4967191;28;20066;-78
2022/08/23 05:06:03;;;;;;;6.40;3.80;;;;;;;18.55;83.75;101068.63;4951357;28;20051;-78
2022/08/23 05:08:31;;;;;;;8.43;3.90;;;;;;;18.50;83.78;101073.47;4967417;28;20058;-77
2022/08/23 05:11:02;;;;;;;4.47;2.95;;;;;;;18.50;83.67;101077.97;4952293;28;20057;-78
2022/08/23 05:13:31;;;;;;;6.85;3.20;;;;;;;18.52;83.08;101082.19;4946178;28;20223;-77
2022/08/23 05:16:01;;;;;;;6.85;2.95;;;;;;;18.56;82.57;101078.31;4986488;28;20162;-77
2022/08/23 05:18:29;;;;;;;5.40;3.10;;;;;;;18.61;82.12;101075.25;4971288;28;20046;-76
2022/08/23 05:21:05;;;;;;;6.93;3.40;;;;;;;18.63;82.06;101082.13;4982781;28;20042;-78
2022/08/23 05:23:35;;;;;;;6.72;3.03;;;;;;;18.69;81.43;101078.97;4941007;28;20082;-79
2022/08/23 05:26:03;;;;;;;7.25;3.15;;;;;;;18.74;81.09;101075.06;4933502;28;20517;-78
2022/08/23 05:28:33;;;;;;;6.20;3.20;;;;;;;18.71;81.88;101082.34;4951123;28;20696;-77
2022/08/23 05:31:09;;;;;;;6.55;3.03;;;;;;;18.70;81.53;101079.81;4935248;28;20138;-79
2022/08/23 05:33:39;;;;;;;6.53;2.92;;;;;;;18.75;81.51;101076.75;4956090;28;20146;-78
2022/08/23 05:36:08;;;;;;;8.05;3.75;;;;;;;18.76;81.65;101081.09;4938389;28;20055;-79
2022/08/23 05:38:36;;;;;;;7.93;3.88;;;;;;;18.80;81.29;101079.88;4958206;28;20078;-79
2022/08/23 05:41:05;;;;;;;8.30;3.35;;;;;;;18.87;81.01;101089.03;4935433;28;20055;-79
2022/08/23 05:43:34;;;;;;;6.97;3.50;;;;;;;18.90;80.66;101088.75;4952602;28;20049;-79
2022/08/23 05:46:04;;;;;;;7.72;3.20;;;;;;;18.92;80.85;101082.31;4970638;28;20043;-79
2022/08/23 05:48:32;;;;;;;5.38;3.35;;;;;;;18.89;82.19;101087.06;4961074;28;20449;-80
2022/08/23 05:51:13;;;;;;;7.80;3.45;;;;;;;18.85;82.13;101083.81;4962258;28;20109;-79
2022/08/23 05:53:41;;;;;;;7.30;3.25;;;;;;;18.87;81.75;101081.88;4964327;28;20102;-81
2022/08/23 05:56:26;;;;;;;11.77;3.25;;;;;;;18.91;81.55;101080.63;4951820;28;20027;-81
2022/08/23 05:58:56;;;;;;;11.65;3.63;;;;;;;18.90;81.96;101081.59;4986123;28;20042;-78
2022/08/23 06:01:53;;;;;;;6.72;3.30;;;;;;;18.92;81.82;101078.81;4948494;28;20043;-80
2022/08/23 06:04:21;;;;;;;8.23;3.80;;;;;;;19.00;81.24;101088.81;4938870;28;20057;-82
2022/08/23 06:06:48;;;;;;;8.80;3.88;;;;;;;19.02;82.67;101092.19;4955405;28;20053;-82
2022/08/23 06:09:16;;;;;;;7.03;3.38;;;;;;;18.99;82.11;101101.28;4953899;28;20047;-80
2022/08/23 06:11:45;;;;;;;8.95;3.83;;;;;;;19.03;81.79;101105.41;4953723;28;20070;-81
2022/08/23 06:14:13;;;;;;;9.38;3.60;;;;;;;19.03;82.71;101108.06;4963152;28;20069;-82
2022/08/23 06:16:44;;;;;;;6.50;2.72;;;;;;;19.05;82.17;101105.25;4940590;28;20047;-82
2022/08/23 06:19:13;;;;;;;9.82;4.30;;;;;;;19.08;83.45;101108.50;4959586;28;20359;-81
2022/08/23 06:21:41;;;;;;;8.23;3.67;;;;;;;19.07;82.72;101103.31;4964598;28;20058;-80
2022/08/23 06:24:08;;;;;;;11.18;3.08;;;;;;;19.10;82.34;101106.56;4952718;28;20067;-81
2022/08/23 06:26:38;;;;;;;7.88;3.63;;;;;;;19.19;81.97;101110.25;4952053;28;20050;-82
2022/08/23 06:29:10;;;;;;;6.00;3.22;;;;;;;19.22;81.58;101118.81;4939530;28;20157;-81
2022/08/23 06:31:48;;;;;;;9.73;3.83;;;;;;;19.28;81.05;101108.59;4983571;28;20118;-81
2022/08/23 06:34:26;;;;;;;6.93;2.78;;;;;;;19.32;81.00;101105.53;4959838;28;20168;-81
2022/08/23 06:36:56;;;;;;;9.30;2.92;;;;;;;19.34;81.44;101108.06;4952697;28;20046;-80
2022/08/23 06:39:25;;;;;;;6.85;3.50;;;;;;;19.34;83.01;101111.56;4954577;28;20074;-80
2022/08/23 06:41:59;;;;;;;10.13;3.00;;;;;;;19.32;82.71;101108.19;4957026;28;20054;-81
2022/08/23 06:44:28;;;;;;;7.50;2.95;;;;;;;19.37;82.54;101107.78;4972062;28;20055;-81
2022/08/23 06:46:56;;;;;;;9.52;3.30;;;;;;;19.39;83.04;101108.47;4960124;28;20043;-81
2022/08/23 06:49:24;;;;;;;9.57;2.97;;;;;;;19.39;83.39;101117.34;4944103;28;20371;-80
2022/08/23 06:51:53;;;;;;;8.63;4.03;;;;;;;19.45;82.62;101111.47;4945044;28;20100;-81
2022/08/23 06:54:23;;;;;;;12.32;3.42;;;;;;;19.53;83.23;101117.94;4949441;28;20070;-80
2022/08/23 06:56:53;;;;;;;7.88;2.70;;;;;;;19.57;82.99;101117.53;4952326;28;20050;-81
2022/08/23 06:59:20;;;;;;;10.48;3.70;;;;;;;19.60;83.45;101119.97;4959835;28;20158;-80
2022/08/23 07:01:56;;;;;;;10.20;3.25;;;;;;;19.67;82.07;101120.25;4981510;28;20626;-80
2022/08/23 07:04:29;;;;;;;6.40;2.90;;;;;;;19.76;82.10;101118.59;4939982;28;20103;-80
2022/08/23 07:07:00;;;;;;;9.45;3.17;;;;;;;19.84;81.48;101121.41;4952454;28;20054;-81
2022/08/23 07:09:29;;;;;;;9.32;3.13;;;;;;;19.89;81.38;101119.19;4946564;28;20077;-81
2022/08/23 07:11:58;;;;;;;6.45;2.47;;;;;;;19.94;81.14;101123.13;4937888;28;20114;-82
2022/08/23 07:14:26;;;;;;;6.13;2.70;;;;;;;19.98;81.11;101123.69;4969521;28;20114;-81
2022/08/23 07:16:59;;;;;;;7.57;3.10;;;;;;;20.00;81.53;101118.22;4971337;28;20050;-82
2022/08/23 07:19:30;;;;;;;8.25;3.30;;;;;;;20.01;82.81;101117.22;4927215;28;20057;-82
2022/08/23 07:21:59;;;;;;;7.88;3.38;;;;;;;19.95;84.36;101122.16;4985905;28;20585;-81
2022/08/23 07:24:27;;;;;;;5.93;2.83;;;;;;;19.93;83.48;101116.09;4940465;28;20094;-82
2022/08/23 07:27:05;;;;;;;7.30;3.08;;;;;;;20.00;83.09;101116.38;4942711;28;20373;-80
2022/08/23 07:29:33;;;;;;;11.65;3.08;;;;;;;20.07;83.29;101109.47;4951784;28;20078;-81
2022/08/23 07:32:01;;;;;;;7.53;2.85;;;;;;;20.13;83.26;101122.31;4937344;28;20381;-79
2022/08/23 07:34:28;;;;;;;9.10;2.70;;;;;;;20.20;82.46;101111.88;4942209;28;20069;-81
2022/08/23 07:36:56;;;;;;;3.67;2.53;;;;;;;20.24;82.50;101122.16;4939699;28;20053;-81
2022/08/23 07:39:25;;;;;;;8.27;3.08;;;;;;;20.31;82.02;101118.91;4938866;28;20054;-81
2022/08/23 07:41:52;;;;;;;6.72;2.33;;;;;;;20.37;82.03;101119.19;4954550;28;20154;-80
2022/08/23 07:44:19;;;;;;;6.82;2.78;;;;;;;20.45;81.92;101121.16;4956964;28;20111;-81
2022/08/23 07:46:53;;;;;;;4.82;2.40;;;;;;;20.55;81.35;101127.38;4965393;28;21928;-79
2022/08/23 07:49:21;;;;;;;6.13;2.80;;;;;;;20.63;81.00;101129.34;4951687;28;20043;-81
2022/08/23 07:51:50;;;;;;;5.57;2.30;;;;;;;20.67;81.13;101134.28;4932472;28;20073;-80
2022/08/23 07:54:20;;;;;;;6.38;2.90;;;;;;;20.70;81.75;101127.78;4957356;28;20154;-82
2022/08/23 07:56:47;;;;;;;6.18;2.45;;;;;;;20.79;81.05;101132.25;4967158;28;20110;-79
2022/08/23 07:59:14;;;;;;;5.30;2.97;;;;;;;20.87;81.49;101131.53;4930306;28;20461;-81
2022/08/23 08:01:43;;;;;;;8.57;2.80;;;;;;;20.92;80.86;101129.28;4966615;28;20062;-79
2022/08/23 08:04:10;;;;;;;9.75;3.20;;;;;;;20.96;81.58;101136.03;4953763;28;20055;-80
2022/08/23 08:06:45;;;;;;;5.00;2.50;;;;;;;20.97;81.02;101132.34;4966450;28;20054;-80
2022/08/23 08:09:14;;;;;;;9.35;2.55;;;;;;;21.03;80.43;101139.81;4972155;28;20066;-80
2022/08/23 08:11:44;;;;;;;5.05;2.22;;;;;;;21.08;80.71;101136.72;4954140;28;20051;-79
2022/08/23 08:14:12;;;;;;;5.38;2.17;;;;;;;21.15;80.09;101135.94;4924642;28;20046;-81
2022/08/23 08:16:48;;;;;;;4.50;1.90;;;;;;;21.22;79.69;101138.91;4959216;28;20043;-81
2022/08/23 08:19:16;;;;;;;4.78;2.75;;;;;;;21.27;79.45;101139.31;4945274;28;20133;-80
2022/08/23 08:21:47;;;;;;;13.23;2.90;;;;;;;21.32;79.16;101137.06;4921479;28;20061;-81
2022/08/23 08:24:16;;;;;;;7.13;2.40;;;;;;;21.36;78.75;101135.78;4960372;28;20046;-79
2022/08/23 08:26:44;;;;;;;5.68;2.80;;;;;;;21.41;79.30;101141.53;4937133;28;20054;-81
2022/08/23 08:29:12;;;;;;;8.65;2.75;;;;;;;21.47;78.69;101142.75;4957959;28;20038;-81
2022/08/23 08:31:41;;;;;;;6.55;2.35;;;;;;;21.54;78.34;101138.50;4952488;28;20154;-81
2022/08/23 08:34:08;;;;;;;5.57;2.10;;;;;;;21.59;78.01;101146.94;4961777;28;20146;-80
2022/08/23 08:36:45;;;;;;;8.50;2.63;;;;;;;21.66;77.86;101134.63;4958890;28;20087;-80
2022/08/23 08:39:18;;;;;;;6.65;2.10;;;;;;;21.71;77.82;101131.50;4953357;28;20523;-80
2022/08/23 08:41:57;;;;;;;4.90;1.92;;;;;;;21.78;77.05;101127.22;4963748;28;20055;-81
2022/08/23 08:44:38;;;;;;;3.92;2.30;;;;;;;21.84;76.62;101133.78;4972437;28;20231;-80
2022/08/23 08:47:09;;;;;;;3.63;2.10;;;;;;;21.92;76.23;101134.72;4943755;28;20057;-82
2022/08/23 08:49:41;;;;;;;4.22;2.25;;;;;;;21.97;75.67;101136.94;4931005;28;20061;-80
2022/08/23 08:52:19;;;;;;;7.82;2.75;;;;;;;22.00;75.82;101139.34;4971825;28;20081;-81
2022/08/23 08:54:57;;;;;;;4.03;1.98;;;;;;;22.01;76.23;101138.34;4956898;28;20054;-81
2022/08/23 08:57:24;;;;;;;5.80;2.30;;;;;;;22.04;75.57;101143.41;4966550;28;20106;-80
2022/08/23 08:59:59;;;;;;;7.15;2.47;;;;;;;22.08;75.66;101141.28;4941046;28;20051;-81
2022/08/23 09:02:32;;;;;;;4.85;2.20;;;;;;;22.06;75.53;101141.41;4965273;28;20034;-82
2022/08/23 09:05:04;;;;;;;5.30;2.33;;;;;;;22.14;75.49;101138.00;4960860;28;20070;-81
2022/08/23 09:07:43;;;;;;;7.43;2.50;;;;;;;22.20;75.07;101140.94;4988577;28;20123;-80
2022/08/23 09:10:32;;;;;;;3.72;2.03;;;;;;;22.23;74.20;101140.59;4957462;28;20803;-81
2022/08/23 09:13:21;;;;;;;5.45;1.88;;;;;;;22.29;73.85;101139.16;4955213;28;20127;-82
2022/08/23 09:16:03;;;;;;;6.68;2.25;;;;;;;22.35;73.29;101141.22;4972426;28;20049;-81
2022/08/23 09:18:34;;;;;;;5.25;2.22;;;;;;;22.35;72.71;101143.06;4949859;28;20049;-82
2022/08/23 09:21:05;;;;;;;5.13;1.77;;;;;;;22.36;72.45;101152.78;4938354;28;20046;-80
2022/08/23 09:23:42;;;;;;;7.75;2.05;;;;;;;22.37;71.92;101139.22;4971152;28;20138;-79
2022/08/23 09:26:17;;;;;;;5.78;2.20;;;;;;;22.39;71.66;101133.72;4949675;28;20043;-78
2022/08/23 09:28:45;;;;;;;7.22;2.10;;;;;;;22.41;71.79;101135.22;4957143;28;20061;-80
2022/08/23 09:31:40;;;;;;;5.70;2.33;;;;;;;22.43;71.30;101137.78;4922024;28;20068;-79
2022/08/23 09:34:08;;;;;;;8.02;2.55;;;;;;;22.47;71.22;101141.84;4961321;28;20046;-79
2022/08/23 09:36:37;;;;;;;5.45;2.45;;;;;;;22.45;71.21;101136.59;4952062;28;20047;-79
2022/08/23 09:39:08;;;;;;;5.43;2.60;;;;;;;22.47;70.84;101139.16;4972505;28;20058;-79
2022/08/23 09:41:40;;;;;;;4.05;1.77;;;;;;;22.51;70.81;101148.53;4942347;28;20528;-81
2022/08/23 09:44:13;;;;;;;3.17;1.98;;;;;;;22.60;70.51;101138.72;4963484;28;20038;-80
2022/08/23 09:46:43;;;;;;;5.20;2.45;;;;;;;22.63;70.02;101144.63;4943675;28;20091;-81
2022/08/23 09:49:24;;;;;;;7.90;2.15;;;;;;;22.70;69.88;101142.19;4968776;28;20471;-80
2022/08/23 09:51:53;;;;;;;4.32;1.85;;;;;;;22.71;69.68;101143.84;4976036;28;20047;-80
2022/08/23 09:54:23;;;;;;;6.07;2.15;;;;;;;22.80;69.72;101150.13;4959779;28;20118;-81
2022/08/23 09:57:02;;;;;;;7.40;1.92;;;;;;;22.82;69.33;101140.06;4966316;28;20030;-81
2022/08/23 09:59:38;;;;;;;6.57;2.30;;;;;;;22.85;69.09;101135.22;4948219;28;20110;-80
2022/08/23 10:02:20;;;;;;;8.63;2.08;;;;;;;22.88;68.91;101136.75;4943289;28;20058;-81
2022/08/23 10:05:19;;;;;;;6.50;3.03;;;;;;;22.89;67.47;101141.13;4960959;28;20051;-80
2022/08/23 10:07:59;;;;;;;3.80;1.90;;;;;;;22.89;67.34;101139.31;4987103;28;20070;-78
2022/08/23 10:10:32;;;;;;;4.03;2.33;;;;;;;22.95;67.54;101148.56;4976454;28;20049;-81
2022/08/23 10:12:59;;;;;;;6.05;2.33;;;;;;;23.03;67.40;101137.03;4962094;28;20078;-80
2022/08/23 10:15:53;;;;;;;7.35;2.80;;;;;;;23.09;66.86;101137.25;4960403;28;21046;-81
2022/08/23 10:18:35;;;;;;;4.10;2.38;;;;;;;23.19;66.36;101145.19;4951328;28;20102;-79
2022/08/23 10:21:14;;;;;;;4.68;2.63;;;;;;;23.29;66.02;101142.41;4971557;28;20154;-81
2022/08/23 10:24:27;;;;;;;4.57;2.07;;;;;;;23.34;65.53;101143.59;4956358;28;20082;-80
2022/08/23 10:30:13;;;;;;;4.75;2.55;;;;;;;23.42;63.86;101140.94;4993139;28;20058;-79
2022/08/23 10:33:34;;;;;;;5.07;2.72;;;;;;;23.45;64.54;101137.91;4978511;28;20026;-78
2022/08/23 10:36:25;;;;;;;5.28;2.40;;;;;;;23.57;64.27;101132.25;4984878;28;20031;-80
2022/08/23 10:38:57;;;;;;;4.25;2.70;;;;;;;23.67;63.76;101133.84;4983750;28;20080;-80
2022/08/23 10:41:43;;;;;;;11.95;3.28;;;;;;;23.77;63.61;101135.53;4956121;28;20142;-79
2022/08/23 10:44:42;;;;;;;4.95;2.55;;;;;;;23.80;62.40;101129.84;4971315;28;20066;-80
2022/08/23 10:47:31;;;;;;;5.75;2.53;;;;;;;23.88;62.40;101132.56;4953905;28;20057;-79
2022/08/23 10:50:12;;;;;;;6.30;2.42;;;;;;;23.93;61.95;101130.22;4951224;28;20046;-81
2022/08/23 10:52:50;;;;;;;5.00;2.22;;;;;;;24.01;61.91;101132.91;4952810;28;20511;-81
2022/08/23 10:55:34;;;;;;;5.45;2.45;;;;;;;24.08;61.12;101131.22;4950548;28;20074;-80
2022/08/23 10:58:05;;;;;;;3.92;2.00;;;;;;;24.08;61.33;101128.53;4951219;28;20062;-80
2022/08/23 11:00:33;;;;;;;4.30;2.17;;;;;;;24.16;61.01;101128.56;4935994;28;20054;-80
2022/08/23 11:03:24;;;;;;;4.85;2.15;;;;;;;24.28;61.45;101130.94;4947756;28;20508;-80
2022/08/23 11:06:36;;;;;;;4.22;2.40;;;;;;;24.41;60.84;101140.22;4949823;28;20101;-79
2022/08/23 11:09:07;;;;;;;4.07;2.03;;;;;;;24.41;60.24;101134.00;4928883;28;20075;-80
2022/08/23 11:11:44;;;;;;;5.63;2.08;;;;;;;24.46;60.24;101137.03;4947894;28;20061;-80
2022/08/23 11:14:49;;;;;;;3.92;1.98;;;;;;;24.49;60.11;101136.66;4969805;28;20050;-81
2022/08/23 11:17:26;;;;;;;3.05;1.85;;;;;;;24.55;59.80;101135.16;4969105;28;20055;-80
2022/08/23 11:19:56;;;;;;;5.50;1.92;;;;;;;24.59;59.16;101133.81;4934750;28;20061;-81
2022/08/23 11:22:32;;;;;;;4.85;2.20;;;;;;;24.52;59.07;101139.03;4941932;28;20129;-80
2022/08/23 11:25:05;;;;;;;5.18;2.00;;;;;;;24.62;59.58;101136.16;4951168;28;20050;-79
2022/08/23 11:27:40;;;;;;;4.97;1.50;;;;;;;24.72;59.53;101134.13;4980734;28;20094;-80
2022/08/23 11:30:35;;;;;;;4.72;1.67;;;;;;;24.83;59.29;101133.78;4953067;28;20074;-79
2022/08/23 11:33:25;;;;;;;6.80;2.00;;;;;;;24.94;58.30;101146.03;4972371;28;20110;-80
2022/08/23 11:36:14;;;;;;;3.92;1.85;;;;;;;24.99;59.03;101147.22;4952882;28;20050;-80
2022/08/23 11:38:47;;;;;;;4.88;1.80;;;;;;;25.06;56.64;101139.28;4937655;28;20042;-81
2022/08/23 11:41:17;;;;;;;6.03;2.15;;;;;;;25.00;56.58;101143.50;4970479;28;20129;-80
2022/08/23 11:44:09;;;;;;;4.03;1.90;;;;;;;24.95;57.44;101145.06;4957296;28;20086;-81
2022/08/23 11:46:48;;;;;;;2.40;1.50;;;;;;;24.95;57.59;101150.44;4948972;28;20062;-81
2022/08/23 11:49:30;;;;;;;6.38;2.28;;;;;;;24.95;57.01;101150.44;4955670;28;20058;-82
2022/08/23 11:52:25;;;;;;;4.03;2.10;;;;;;;25.01;56.58;101155.13;4937032;28;20130;-81
2022/08/23 11:55:13;;;;;;;4.40;2.05;;;;;;;25.10;56.91;101151.44;4957991;28;20050;-81
2022/08/23 11:57:47;;;;;;;5.80;1.90;;;;;;;25.24;56.36;101156.09;4954216;28;20061;-80
2022/08/23 12:00:26;;;;;;;4.60;1.98;;;;;;;25.36;56.13;101156.56;4972150;28;20053;-82
2022/08/23 12:03:02;;;;;;;7.78;2.33;;;;;;;25.43;56.18;101156.72;4956895;28;20561;-82